createdAt,value
2022-12-06T00:00:08.930Z,25.77
2022-12-06T00:02:35.212Z,29.20
2022-12-06T00:04:57.782Z,24.63
2022-12-06T00:07:20.468Z,26.10
2022-12-06T00:09:43.117Z,28.65
2022-12-06T00:12:05.929Z,25.20
2022-12-06T00:14:28.537Z,21.55
2022-12-06T00:16:52.113Z,22.38
2022-12-06T00:19:17.328Z,23.77
2022-12-06T00:21:40.535Z,26.58
2022-12-06T00:24:09.152Z,23.87
2022-12-06T00:26:35.839Z,21.83
2022-12-06T00:29:00.333Z,21.83
2022-12-06T00:31:25.181Z,19.98
2022-12-06T00:33:47.897Z,18.50
2022-12-06T00:36:35.737Z,18.57
2022-12-06T00:39:03.620Z,19.17
2022-12-06T00:41:26.125Z,20.42
2022-12-06T00:43:49.496Z,17.15
2022-12-06T00:46:17.521Z,17.45
2022-12-06T00:48:40.249Z,20.57
2022-12-06T00:51:02.854Z,19.98
2022-12-06T00:53:26.163Z,15.60
2022-12-06T00:55:49.383Z,17.13
2022-12-06T00:58:12.360Z,19.40
2022-12-06T01:00:35.005Z,18.47
2022-12-06T01:02:58.098Z,16.17
2022-12-06T01:05:20.680Z,17.55
2022-12-06T01:07:43.387Z,15.00
2022-12-06T01:10:06.800Z,19.10
2022-12-06T01:12:29.572Z,16.87
2022-12-06T01:14:52.053Z,16.92
2022-12-06T01:17:14.501Z,18.50
2022-12-06T01:19:37.192Z,15.13
2022-12-06T01:21:59.784Z,17.75
2022-12-06T01:24:22.244Z,17.73
2022-12-06T01:26:44.945Z,18.52
2022-12-06T01:29:07.468Z,16.80
2022-12-06T01:31:37.182Z,17.27
2022-12-06T01:34:01.289Z,18.73
2022-12-06T01:36:25.375Z,18.47
2022-12-06T01:38:56.174Z,18.30
2022-12-06T01:41:23.479Z,17.95
2022-12-06T01:43:46.912Z,15.90
2022-12-06T01:46:13.282Z,15.43
2022-12-06T01:48:36.119Z,14.20
2022-12-06T01:50:59.753Z,18.77
2022-12-06T01:53:26.045Z,14.75
2022-12-06T01:55:49.301Z,11.35
2022-12-06T01:58:17.996Z,16.85
2022-12-06T02:00:40.591Z,15.53
2022-12-06T02:03:04.609Z,16.52
2022-12-06T02:05:28.568Z,14.32
2022-12-06T02:07:52.114Z,14.45
2022-12-06T02:10:14.811Z,14.70
2022-12-06T02:12:37.675Z,16.90
2022-12-06T02:15:00.368Z,13.77
2022-12-06T02:17:37.641Z,14.57
2022-12-06T02:20:17.666Z,14.05
2022-12-06T02:23:01.108Z,14.57
2022-12-06T02:25:48.261Z,15.20
2022-12-06T02:28:36.418Z,16.30
2022-12-06T02:31:28.319Z,13.82
2022-12-06T02:33:57.569Z,13.90
2022-12-06T02:36:31.154Z,15.25
2022-12-06T02:39:08.328Z,15.20
2022-12-06T02:41:36.194Z,16.55
2022-12-06T02:44:03.286Z,15.63
2022-12-06T02:46:30.007Z,14.85
2022-12-06T02:48:54.356Z,14.82
2022-12-06T02:51:18.247Z,15.17
2022-12-06T02:53:46.140Z,17.98
2022-12-06T02:56:08.811Z,14.88
2022-12-06T02:58:36.877Z,17.98
2022-12-06T03:01:02.911Z,18.52
2022-12-06T03:04:01.926Z,15.57
2022-12-06T03:06:49.068Z,15.70
2022-12-06T03:09:42.449Z,20.00
2022-12-06T03:12:14.280Z,18.35
2022-12-06T03:15:15.496Z,20.38
2022-12-06T03:17:47.198Z,20.17
2022-12-06T03:20:18.561Z,16.55
2022-12-06T03:22:48.270Z,20.48
2022-12-06T03:25:11.261Z,19.50
2022-12-06T03:27:35.667Z,20.95
2022-12-06T03:30:04.083Z,21.40
2022-12-06T03:32:31.281Z,20.85
2022-12-06T03:34:57.452Z,19.08
2022-12-06T03:37:23.565Z,18.13
2022-12-06T03:40:01.429Z,20.10
2022-12-06T03:42:24.536Z,21.80
2022-12-06T03:44:47.573Z,19.40
2022-12-06T03:47:20.066Z,22.13
2022-12-06T03:49:50.647Z,21.55
2022-12-06T03:52:13.262Z,23.48
2022-12-06T03:54:41.795Z,22.90
2022-12-06T03:57:04.506Z,21.80
2022-12-06T03:59:27.252Z,19.45
2022-12-06T04:01:49.857Z,19.63
2022-12-06T04:04:12.701Z,19.95
2022-12-06T04:06:35.428Z,22.50
2022-12-06T04:09:18.360Z,17.85
2022-12-06T04:11:41.501Z,17.50
2022-12-06T04:14:04.024Z,19.60
2022-12-06T04:16:45.308Z,20.70
2022-12-06T04:19:08.033Z,18.67
2022-12-06T04:22:09.932Z,16.38
2022-12-06T04:24:32.704Z,18.52
2022-12-06T04:27:15.256Z,19.58
2022-12-06T04:29:57.129Z,18.25
2022-12-06T04:32:38.412Z,18.60
2022-12-06T04:35:19.373Z,16.27
2022-12-06T04:38:00.577Z,17.92
2022-12-06T04:40:23.200Z,16.20
2022-12-06T04:43:03.890Z,18.20
2022-12-06T04:45:26.524Z,16.93
2022-12-06T04:47:49.051Z,18.08
2022-12-06T04:50:11.664Z,17.65
2022-12-06T04:52:35.918Z,18.60
2022-12-06T04:54:58.727Z,17.25
2022-12-06T04:57:21.227Z,18.20
2022-12-06T04:59:46.295Z,18.38
2022-12-06T05:02:12.458Z,19.02
2022-12-06T05:04:35.141Z,19.02
2022-12-06T05:06:57.756Z,19.30
2022-12-06T05:09:20.525Z,21.30
2022-12-06T05:11:43.103Z,19.85
2022-12-06T05:14:05.766Z,20.45
2022-12-06T05:16:28.481Z,19.48
2022-12-06T05:18:51.045Z,19.98
2022-12-06T05:21:16.502Z,19.37
2022-12-06T05:23:39.508Z,19.35
2022-12-06T05:26:08.060Z,18.67
2022-12-06T05:28:33.424Z,18.48
2022-12-06T05:30:56.761Z,19.55
2022-12-06T05:33:19.633Z,19.87
2022-12-06T05:35:42.161Z,20.83
2022-12-06T05:38:05.032Z,21.15
2022-12-06T05:40:28.809Z,22.15
2022-12-06T05:42:51.645Z,19.50
2022-12-06T05:45:14.239Z,22.30
2022-12-06T05:47:36.930Z,20.23
2022-12-06T05:50:00.188Z,22.10
2022-12-06T05:52:23.532Z,19.33
2022-12-06T05:54:46.279Z,19.38
2022-12-06T05:57:08.992Z,19.33
2022-12-06T05:59:31.871Z,22.45
2022-12-06T06:01:55.000Z,23.75
2022-12-06T06:04:17.814Z,24.63
2022-12-06T06:06:40.402Z,23.67
2022-12-06T06:09:03.040Z,22.67
2022-12-06T06:11:25.833Z,23.30
2022-12-06T06:13:48.467Z,21.58
2022-12-06T06:16:11.255Z,21.35
2022-12-06T06:18:34.707Z,22.10
2022-12-06T06:21:00.607Z,20.20
2022-12-06T06:23:24.342Z,19.05
2022-12-06T06:25:51.080Z,17.88
2022-12-06T06:28:14.303Z,22.55
2022-12-06T06:30:37.021Z,18.77
2022-12-06T06:32:59.641Z,19.40
2022-12-06T06:35:22.303Z,19.02
2022-12-06T06:37:45.221Z,20.52
2022-12-06T06:40:08.534Z,20.77
2022-12-06T06:42:31.144Z,22.92
2022-12-06T06:44:55.605Z,21.40
2022-12-06T06:47:18.352Z,19.73
2022-12-06T06:49:44.137Z,25.02
2022-12-06T06:52:07.218Z,23.20
2022-12-06T06:54:30.074Z,21.83
2022-12-06T06:56:57.705Z,21.70
2022-12-06T06:59:20.495Z,20.65
2022-12-06T07:01:43.409Z,20.58
2022-12-06T07:04:06.264Z,18.65
2022-12-06T07:06:29.215Z,19.05
2022-12-06T07:08:52.236Z,20.67
2022-12-06T07:11:15.291Z,21.25
2022-12-06T07:13:39.321Z,21.65
2022-12-06T07:16:04.531Z,21.83
2022-12-06T07:18:27.396Z,22.00
2022-12-06T07:20:59.069Z,19.10
2022-12-06T07:23:22.358Z,20.83
2022-12-06T07:25:44.891Z,19.40
2022-12-06T07:28:08.080Z,25.92
2022-12-06T07:30:30.793Z,24.63
2022-12-06T07:32:54.066Z,19.27
2022-12-06T07:35:16.782Z,19.52
2022-12-06T07:37:45.570Z,21.02
2022-12-06T07:40:09.056Z,21.85
2022-12-06T07:42:50.352Z,21.95
2022-12-06T07:45:15.917Z,28.77
2022-12-06T07:47:40.510Z,30.15
2022-12-06T07:50:05.596Z,25.50
2022-12-06T07:52:36.488Z,28.20
2022-12-06T07:54:59.316Z,25.60
2022-12-06T07:57:22.705Z,27.38
2022-12-06T07:59:46.247Z,22.73
2022-12-06T08:02:18.542Z,20.75
2022-12-06T08:04:41.500Z,17.95
2022-12-06T08:07:04.150Z,10.43
2022-12-06T08:09:26.946Z,11.67
2022-12-06T08:11:49.505Z,7.72
2022-12-06T08:14:12.489Z,5.78
2022-12-06T08:16:35.529Z,7.07
2022-12-06T08:18:58.806Z,8.60
2022-12-06T08:21:21.745Z,10.37
2022-12-06T08:23:44.890Z,9.05
2022-12-06T08:26:10.343Z,8.00
2022-12-06T08:28:34.677Z,7.80
2022-12-06T08:31:02.919Z,8.60
2022-12-06T08:33:28.239Z,9.37
2022-12-06T08:35:52.056Z,8.05
2022-12-06T08:38:15.687Z,9.35
2022-12-06T08:40:38.696Z,7.80
2022-12-06T08:43:01.445Z,6.95
2022-12-06T08:45:24.039Z,7.53
2022-12-06T08:47:46.708Z,6.88
2022-12-06T08:50:09.749Z,7.47
2022-12-06T08:52:32.584Z,5.00
2022-12-06T08:54:55.204Z,6.35
2022-12-06T08:57:17.872Z,8.23
2022-12-06T08:59:40.481Z,5.32
2022-12-06T09:02:03.375Z,5.18
2022-12-06T09:04:26.581Z,5.30
2022-12-06T09:06:49.405Z,4.95
2022-12-06T09:09:14.160Z,4.10
2022-12-06T09:11:39.302Z,4.15
2022-12-06T09:14:02.077Z,4.05
2022-12-06T09:16:25.068Z,7.32
2022-12-06T09:18:49.324Z,6.15
2022-12-06T09:21:18.605Z,6.73
2022-12-06T09:23:41.826Z,3.72
2022-12-06T09:26:05.808Z,3.17
2022-12-06T09:28:30.134Z,3.92
2022-12-06T09:30:52.916Z,4.07
2022-12-06T09:33:15.602Z,4.47
2022-12-06T09:35:38.302Z,3.88
2022-12-06T09:38:03.646Z,4.05
2022-12-06T09:41:03.564Z,4.38
2022-12-06T09:43:44.807Z,4.45
2022-12-06T09:46:36.637Z,5.03
2022-12-06T09:49:06.880Z,3.95
2022-12-06T09:51:29.587Z,4.85
2022-12-06T09:54:20.297Z,5.47
2022-12-06T09:56:58.822Z,4.82
2022-12-06T09:59:43.213Z,7.90
2022-12-06T10:02:15.685Z,5.22
2022-12-06T10:05:04.550Z,5.80
2022-12-06T10:07:48.334Z,6.22
2022-12-06T10:10:23.093Z,4.15
2022-12-06T10:13:03.190Z,4.53
2022-12-06T10:15:47.169Z,5.07
2022-12-06T10:18:35.613Z,4.03
2022-12-06T10:21:39.756Z,5.00
2022-12-06T10:24:11.443Z,4.40
2022-12-06T10:26:48.139Z,4.20
2022-12-06T10:29:27.363Z,4.85
2022-12-06T10:32:00.108Z,4.80
2022-12-06T10:34:27.333Z,5.28
2022-12-06T10:37:02.152Z,5.57
2022-12-06T10:39:40.081Z,5.83
2022-12-06T10:42:44.840Z,7.10
2022-12-06T10:45:47.547Z,8.02
2022-12-06T10:48:26.746Z,6.22
2022-12-06T10:50:58.983Z,5.00
2022-12-06T10:53:25.509Z,6.20
2022-12-06T10:55:58.435Z,4.90
2022-12-06T10:58:24.110Z,5.35
2022-12-06T11:00:59.112Z,4.57
2022-12-06T11:03:43.936Z,5.97
2022-12-06T11:06:40.588Z,5.67
2022-12-06T11:09:30.892Z,4.38
2022-12-06T11:11:53.668Z,5.15
2022-12-06T11:14:25.995Z,3.85
2022-12-06T11:17:00.908Z,4.25
2022-12-06T11:19:32.303Z,4.00
2022-12-06T11:22:22.893Z,4.85
2022-12-06T11:25:12.141Z,3.78
2022-12-06T11:27:41.900Z,3.15
2022-12-06T11:30:19.550Z,3.28
2022-12-06T11:32:43.772Z,2.73
2022-12-06T11:35:14.351Z,2.65
2022-12-06T11:37:42.943Z,4.05
2022-12-06T11:40:26.239Z,4.72
2022-12-06T11:42:53.946Z,4.20
2022-12-06T11:45:27.008Z,5.20
2022-12-06T11:47:49.834Z,3.35
2022-12-06T11:50:18.123Z,2.90
2022-12-06T11:53:04.010Z,3.95
2022-12-06T11:55:29.923Z,3.55
2022-12-06T11:58:03.742Z,3.97
2022-12-06T12:00:27.261Z,3.25
2022-12-06T12:02:52.634Z,3.50
2022-12-06T12:05:31.050Z,3.70
2022-12-06T12:07:59.048Z,3.90
2022-12-06T12:10:21.765Z,5.57
2022-12-06T12:13:06.922Z,4.18
2022-12-06T12:15:29.749Z,4.65
2022-12-06T12:17:53.844Z,2.78
2022-12-06T12:20:28.063Z,3.45
2022-12-06T12:23:01.182Z,3.27
2022-12-06T12:25:28.818Z,3.45
2022-12-06T12:28:25.602Z,3.38
2022-12-06T12:30:54.572Z,4.32
2022-12-06T12:33:19.813Z,4.10
2022-12-06T12:35:52.007Z,4.43
2022-12-06T12:38:19.698Z,3.88
2022-12-06T12:40:46.037Z,3.13
2022-12-06T12:43:11.496Z,3.50
2022-12-06T12:45:34.618Z,4.60
2022-12-06T12:48:03.174Z,4.43
2022-12-06T12:50:27.570Z,5.18
2022-12-06T12:52:51.805Z,5.40
2022-12-06T12:55:14.744Z,8.38
2022-12-06T12:57:37.561Z,3.47
2022-12-06T13:00:00.713Z,4.37
2022-12-06T13:02:28.499Z,6.25
2022-12-06T13:05:17.182Z,4.32
2022-12-06T13:07:44.697Z,10.18
2022-12-06T13:10:37.088Z,5.93
2022-12-06T13:13:04.728Z,4.37
2022-12-06T13:15:38.015Z,3.38
2022-12-06T13:18:10.504Z,3.08
2022-12-06T13:20:34.524Z,3.80
2022-12-06T13:23:03.384Z,3.22
2022-12-06T13:25:26.241Z,3.73
2022-12-06T13:27:54.846Z,3.63
2022-12-06T13:30:26.259Z,2.88
2022-12-06T13:32:53.824Z,2.30
2022-12-06T13:35:31.800Z,3.78
2022-12-06T13:37:58.854Z,4.00
2022-12-06T13:40:33.697Z,4.50
2022-12-06T13:42:56.380Z,5.57
2022-12-06T13:45:40.420Z,4.05
2022-12-06T13:48:03.303Z,3.83
2022-12-06T13:50:25.801Z,3.40
2022-12-06T13:52:48.373Z,3.15
2022-12-06T13:55:26.211Z,2.95
2022-12-06T13:57:49.019Z,4.13
2022-12-06T14:00:31.928Z,3.70
2022-12-06T14:03:03.859Z,5.37
2022-12-06T14:08:19.204Z,4.15
2022-12-06T14:10:41.778Z,4.13
2022-12-06T14:13:04.953Z,4.38
2022-12-06T14:15:28.330Z,6.60
2022-12-06T14:18:03.150Z,6.15
2022-12-06T14:20:29.351Z,10.07
2022-12-06T14:22:52.122Z,11.98
2022-12-06T14:25:20.552Z,10.10
2022-12-06T14:27:47.357Z,8.07
2022-12-06T14:30:25.898Z,4.90
2022-12-06T14:32:53.937Z,5.00
2022-12-06T14:35:20.813Z,6.75
2022-12-06T14:37:53.584Z,5.78
2022-12-06T14:40:54.931Z,3.90
2022-12-06T14:43:19.488Z,4.53
2022-12-06T14:45:44.231Z,4.70
2022-12-06T14:48:07.183Z,4.45
2022-12-06T14:50:58.822Z,6.93
2022-12-06T14:53:39.092Z,7.23
2022-12-06T14:56:07.849Z,6.38
2022-12-06T14:58:37.261Z,6.03
2022-12-06T15:01:02.996Z,5.07
2022-12-06T15:03:57.095Z,4.95
2022-12-06T15:06:22.457Z,5.97
2022-12-06T15:09:12.600Z,7.57
2022-12-06T15:11:56.232Z,6.10
2022-12-06T15:14:27.748Z,6.53
2022-12-06T15:17:09.793Z,6.22
2022-12-06T15:19:53.499Z,7.53
2022-12-06T15:22:25.002Z,6.50
2022-12-06T15:24:50.806Z,7.05
2022-12-06T15:27:13.417Z,6.05
2022-12-06T15:29:36.396Z,6.82
2022-12-06T15:31:59.494Z,8.60
2022-12-06T15:34:27.764Z,10.52
2022-12-06T15:37:03.620Z,7.68
2022-12-06T15:39:32.007Z,8.52
2022-12-06T15:41:55.240Z,7.40
2022-12-06T15:44:21.216Z,7.40
2022-12-06T15:46:44.505Z,7.22
2022-12-06T15:49:07.845Z,7.30
2022-12-06T15:51:30.467Z,8.60
2022-12-06T15:53:55.255Z,7.30
2022-12-06T15:56:23.023Z,8.70
2022-12-06T15:58:46.843Z,8.40
2022-12-06T16:01:41.918Z,10.10
2022-12-06T16:04:07.581Z,8.73
2022-12-06T16:06:30.202Z,8.60
2022-12-06T16:08:53.273Z,9.93
2022-12-06T16:11:19.690Z,8.45
2022-12-06T16:13:42.425Z,9.73
2022-12-06T16:16:06.113Z,8.25
2022-12-06T16:18:28.701Z,10.35
2022-12-06T16:20:51.520Z,10.57
2022-12-06T16:24:11.334Z,9.43
2022-12-06T16:26:21.021Z,8.98
2022-12-06T16:28:44.075Z,9.18
2022-12-06T16:31:07.999Z,9.30
2022-12-06T16:33:30.763Z,9.73
2022-12-06T16:35:55.651Z,9.60
2022-12-06T16:38:18.440Z,9.20
2022-12-06T16:40:42.382Z,9.75
2022-12-06T16:43:04.947Z,11.00
2022-12-06T16:45:27.497Z,9.90
2022-12-06T16:47:50.872Z,11.25
2022-12-06T16:50:23.524Z,9.88
2022-12-06T16:52:46.296Z,11.30
2022-12-06T16:55:09.577Z,12.27
2022-12-06T16:57:32.572Z,12.00
2022-12-06T16:59:55.240Z,12.60
2022-12-06T17:02:36.138Z,14.27
2022-12-06T17:05:01.573Z,15.43
2022-12-06T17:07:24.533Z,13.40
2022-12-06T17:09:47.367Z,13.23
2022-12-06T17:12:13.195Z,12.50
2022-12-06T17:14:38.784Z,14.73
2022-12-06T17:17:04.253Z,14.05
2022-12-06T17:19:31.659Z,15.35
2022-12-06T17:21:54.695Z,16.97
2022-12-06T17:24:20.249Z,17.92
2022-12-06T17:26:43.291Z,18.70
2022-12-06T17:29:07.077Z,23.08
2022-12-06T17:31:30.133Z,21.27
2022-12-06T17:33:53.093Z,20.07
2022-12-06T17:36:17.564Z,22.42
2022-12-06T17:38:42.957Z,20.92
2022-12-06T17:41:48.420Z,23.55
2022-12-06T17:44:14.890Z,23.92
2022-12-06T17:46:39.099Z,22.93
2022-12-06T17:49:03.346Z,20.20
2022-12-06T17:51:27.617Z,28.05
2022-12-06T17:53:51.581Z,23.95
2022-12-06T17:56:23.282Z,29.33
2022-12-06T17:58:45.887Z,23.67
2022-12-06T18:01:08.888Z,25.45
2022-12-06T18:03:31.931Z,28.45
2022-12-06T18:05:58.486Z,22.98
2022-12-06T18:08:21.109Z,19.77
2022-12-06T18:10:44.138Z,18.37
2022-12-06T18:13:07.841Z,15.88
2022-12-06T18:15:39.362Z,15.18
2022-12-06T18:18:02.178Z,16.48
2022-12-06T18:20:24.824Z,14.35
2022-12-06T18:22:48.004Z,16.97
2022-12-06T18:25:10.791Z,15.65
2022-12-06T18:27:33.833Z,15.35
2022-12-06T18:29:57.075Z,16.23
2022-12-06T18:32:20.413Z,14.65
2022-12-06T18:34:43.195Z,16.17
2022-12-06T18:37:06.110Z,17.17
2022-12-06T18:39:29.052Z,16.80
2022-12-06T18:41:53.802Z,23.17
2022-12-06T18:44:16.864Z,29.90
2022-12-06T18:46:42.208Z,25.50
2022-12-06T18:49:05.958Z,19.75
2022-12-06T18:51:32.358Z,24.35
2022-12-06T18:53:58.404Z,21.98
2022-12-06T18:56:23.584Z,20.17
2022-12-06T18:58:47.941Z,16.60
2022-12-06T19:01:12.494Z,21.02
2022-12-06T19:03:35.996Z,19.98
2022-12-06T19:06:07.153Z,20.77
2022-12-06T19:08:30.643Z,18.42
2022-12-06T19:10:53.539Z,24.47
2022-12-06T19:13:16.375Z,71.63
2022-12-06T19:15:39.440Z,94.72
2022-12-06T19:18:02.521Z,34.38
2022-12-06T19:20:25.540Z,21.77
2022-12-06T19:22:49.154Z,25.83
2022-12-06T19:25:12.110Z,22.83
2022-12-06T19:27:39.436Z,18.60
2022-12-06T19:30:02.433Z,17.02
2022-12-06T19:32:26.536Z,21.17
2022-12-06T19:34:50.420Z,19.57
2022-12-06T19:37:13.937Z,21.95
2022-12-06T19:39:38.340Z,22.80
2022-12-06T19:42:19.797Z,22.80
2022-12-06T19:44:42.959Z,20.98
2022-12-06T19:47:06.165Z,21.97
2022-12-06T19:49:30.101Z,21.35
2022-12-06T19:51:54.483Z,22.95
2022-12-06T19:54:26.085Z,22.33
2022-12-06T19:56:51.616Z,22.90
2022-12-06T19:59:15.263Z,20.83
2022-12-06T20:01:43.751Z,23.02
2022-12-06T20:04:06.746Z,22.63
2022-12-06T20:06:29.694Z,20.92
2022-12-06T20:08:54.337Z,22.05
2022-12-06T20:11:38.301Z,22.63
2022-12-06T20:14:12.546Z,19.13
2022-12-06T20:16:36.888Z,17.55
2022-12-06T20:19:00.225Z,16.58
2022-12-06T20:21:23.457Z,18.40
2022-12-06T20:23:47.952Z,18.43
2022-12-06T20:26:15.123Z,16.77
2022-12-06T20:28:37.673Z,17.45
2022-12-06T20:31:00.759Z,17.02
2022-12-06T20:33:24.024Z,20.17
2022-12-06T20:35:46.997Z,15.57
2022-12-06T20:38:09.809Z,15.70
2022-12-06T20:40:34.504Z,15.05
2022-12-06T20:42:57.350Z,16.17
2022-12-06T20:45:21.036Z,15.02
2022-12-06T20:47:48.898Z,16.47
2022-12-06T20:50:11.845Z,17.58
2022-12-06T20:52:34.487Z,18.05
2022-12-06T20:54:57.412Z,16.83
2022-12-06T20:57:20.135Z,16.67
2022-12-06T20:59:43.553Z,18.43
2022-12-06T21:02:06.761Z,18.90
2022-12-06T21:04:29.655Z,35.08
2022-12-06T21:06:52.902Z,40.97
2022-12-06T21:09:16.676Z,29.63
2022-12-06T21:11:39.493Z,27.10
2022-12-06T21:14:03.371Z,23.67
2022-12-06T21:16:31.109Z,27.15
2022-12-06T21:18:56.566Z,25.30
2022-12-06T21:21:27.819Z,27.95
2022-12-06T21:23:50.715Z,26.93
2022-12-06T21:26:13.386Z,29.13
2022-12-06T21:28:36.147Z,27.77
2022-12-06T21:30:59.417Z,26.58
2022-12-06T21:33:24.219Z,28.23
2022-12-06T21:35:48.550Z,27.77
2022-12-06T21:38:11.779Z,28.10
2022-12-06T21:40:34.703Z,24.67
2022-12-06T21:42:57.449Z,26.65
2022-12-06T21:45:20.068Z,25.58
2022-12-06T21:47:43.342Z,27.53
2022-12-06T21:50:06.726Z,26.77
2022-12-06T21:52:29.449Z,26.88
2022-12-06T21:54:52.107Z,25.65
2022-12-06T21:57:14.740Z,27.13
2022-12-06T21:59:37.795Z,27.67
2022-12-06T22:02:00.467Z,26.83
2022-12-06T22:04:22.977Z,26.40
2022-12-06T22:06:45.568Z,28.25
2022-12-06T22:09:08.220Z,30.10
2022-12-06T22:11:31.632Z,28.10
2022-12-06T22:13:54.146Z,28.92
2022-12-06T22:16:17.840Z,28.83
2022-12-06T22:18:45.451Z,28.67
2022-12-06T22:21:21.138Z,33.45
2022-12-06T22:23:44.232Z,28.67
2022-12-06T22:26:09.181Z,27.60
2022-12-06T22:28:32.470Z,27.88
2022-12-06T22:30:55.036Z,29.25
2022-12-06T22:33:20.202Z,32.70
2022-12-06T22:35:42.909Z,28.43
2022-12-06T22:38:05.654Z,30.30
2022-12-06T22:40:28.185Z,31.23
2022-12-06T22:42:50.797Z,30.67
2022-12-06T22:45:13.266Z,33.03
2022-12-06T22:47:35.859Z,29.87
2022-12-06T22:49:58.723Z,33.63
2022-12-06T22:52:21.745Z,41.13
2022-12-06T22:54:44.253Z,39.88
2022-12-06T22:57:06.780Z,36.85
2022-12-06T22:59:29.349Z,37.37
2022-12-06T23:01:52.959Z,39.50
2022-12-06T23:04:15.656Z,30.52
2022-12-06T23:06:39.048Z,27.85
2022-12-06T23:09:01.681Z,30.80
2022-12-06T23:11:26.985Z,30.73
2022-12-06T23:13:50.034Z,30.40
2022-12-06T23:16:15.294Z,28.90
2022-12-06T23:18:37.903Z,29.48
2022-12-06T23:21:14.048Z,31.80
2022-12-06T23:23:38.186Z,31.13
2022-12-06T23:26:05.393Z,32.92
2022-12-06T23:28:28.151Z,34.03
2022-12-06T23:30:50.801Z,28.98
2022-12-06T23:33:15.997Z,27.48
2022-12-06T23:35:42.160Z,29.67
2022-12-06T23:38:04.802Z,32.33
2022-12-06T23:40:27.675Z,43.80
2022-12-06T23:42:50.315Z,36.67
2022-12-06T23:45:12.877Z,38.10
2022-12-06T23:47:35.589Z,40.47
2022-12-06T23:49:58.234Z,47.03
2022-12-06T23:52:20.920Z,40.45
2022-12-06T23:54:43.479Z,41.58
2022-12-06T23:57:06.028Z,42.55
2022-12-06T23:59:28.725Z,40.23
